EFMA/MHQ METAR and TAF weather

Enter ICAO airport designator
Station Type Date Time Source
EFMA METAR 2018/01/16 08:50 UTC NOAA

EFMA 160850Z 13018G29KT 100V180 9999 OVC014 M01/M04 Q0998


Station Type Date Time Source
EFMA Decoded METAR 2018/01/16 08:50 UTC NOAA

Mariehamn / Aland Island, Finland (EFMA) 60-07N 019-54E
Jan 16, 2018 - 03:50 AM EST / 2018.01.16 0850 UTC
Wind: from the SE (130 degrees) at 21 MPH (18 KT) gusting to 33 MPH (29 KT) (direction variable):0
Visibility: greater than 7 mile(s):0
Sky conditions: overcast
Temperature: 30 F (-1 C)
Windchill: 17 F (-8 C):1
Dew Point: 24 F (-4 C)
Relative Humidity: 80%
Pressure (altimeter): 29.47 in. Hg (0998 hPa)
ob: EFMA 160850Z 13018G29KT 100V180 9999 OVC014 M01/M04 Q0998
cycle: 9

Station Type Date Time Source
EFMA TAF 2014/05/01 21:18 UTC NOAA

TAF TAF EFMA 302037Z 3021/0106 08008KT CAVOK
TEMPO 3023/0101 02010KT 6000 RASN
BECMG 0101/0103 01012KT 4000 RASN BKN010 OVC025


Example: see airport list